createdAt,value
2022-08-05T00:00:29.263Z,973.79
2022-08-05T00:01:29.379Z,973.80
2022-08-05T00:02:29.174Z,973.79
2022-08-05T00:03:29.041Z,973.82
2022-08-05T00:04:28.974Z,973.80
2022-08-05T00:06:05.523Z,973.85
2022-08-05T00:06:33.161Z,973.84
2022-08-05T00:07:59.663Z,973.78
2022-08-05T00:08:34.607Z,973.79
2022-08-05T00:09:28.610Z,973.82
2022-08-05T00:10:28.545Z,973.77
2022-08-05T00:11:34.614Z,973.80
2022-08-05T00:12:28.397Z,973.76
2022-08-05T00:13:38.455Z,973.76
2022-08-05T00:14:31.471Z,973.74
2022-08-05T00:15:54.895Z,973.76
2022-08-05T00:16:36.510Z,973.73
2022-08-05T00:17:28.031Z,973.70
2022-08-05T00:18:27.968Z,973.69
2022-08-05T00:19:33.745Z,973.71
2022-08-05T00:20:29.093Z,973.67
2022-08-05T00:21:27.738Z,973.66
2022-08-05T00:22:27.673Z,973.65
2022-08-05T00:23:44.557Z,973.65
2022-08-05T00:24:30.681Z,973.64
2022-08-05T00:25:27.452Z,973.60
2022-08-05T00:26:27.384Z,973.63
2022-08-05T00:27:35.685Z,973.58
2022-08-05T00:28:29.790Z,973.59
2022-08-05T00:29:27.636Z,973.59
2022-08-05T00:30:29.001Z,973.59
2022-08-05T00:31:53.806Z,973.61
2022-08-05T00:32:26.946Z,973.59
2022-08-05T00:34:53.350Z,973.60
2022-08-05T00:34:54.486Z,973.58
2022-08-05T00:35:33.333Z,973.59
2022-08-05T00:37:11.306Z,973.59
2022-08-05T00:37:26.862Z,973.59
2022-08-05T00:38:28.887Z,973.58
2022-08-05T00:39:26.504Z,973.58
2022-08-05T00:40:28.740Z,973.60
2022-08-05T00:41:26.288Z,973.58
2022-08-05T00:42:31.692Z,973.60
2022-08-05T00:43:26.155Z,973.58
2022-08-05T00:44:30.937Z,973.60
2022-08-05T00:45:37.829Z,973.60
2022-08-05T00:46:42.419Z,973.61
2022-08-05T00:47:25.853Z,973.57
2022-08-05T00:48:27.677Z,973.58
2022-08-05T00:49:25.711Z,973.55
2022-08-05T00:50:25.877Z,973.58
2022-08-05T00:51:50.559Z,973.56
2022-08-05T00:52:28.518Z,973.60
2022-08-05T00:54:01.482Z,973.59
2022-08-05T00:54:28.010Z,973.57
2022-08-05T00:55:42.531Z,973.58
2022-08-05T00:56:25.198Z,973.58
2022-08-05T00:57:31.765Z,973.54
2022-08-05T00:58:27.227Z,973.52
2022-08-05T00:59:24.980Z,973.57
2022-08-05T01:00:25.827Z,973.57
2022-08-05T01:01:42.685Z,973.56
2022-08-05T01:02:24.765Z,973.52
2022-08-05T01:03:24.693Z,973.53
2022-08-05T01:04:27.001Z,973.52
2022-08-05T01:05:24.560Z,973.51
2022-08-05T01:06:32.763Z,973.50
2022-08-05T01:07:31.471Z,973.48
2022-08-05T01:08:30.623Z,973.51
2022-08-05T01:09:24.250Z,973.47
2022-08-05T01:10:25.803Z,973.47
2022-08-05T01:11:33.442Z,973.48
2022-08-05T01:12:24.031Z,973.45
2022-08-05T01:13:27.575Z,973.43
2022-08-05T01:14:28.475Z,973.43
2022-08-05T01:15:36.147Z,973.45
2022-08-05T01:16:26.525Z,973.43
2022-08-05T01:17:23.857Z,973.44
2022-08-05T01:18:23.598Z,973.43
2022-08-05T01:19:56.116Z,973.43
2022-08-05T01:20:23.447Z,973.41
2022-08-05T01:21:23.379Z,973.41
2022-08-05T01:22:24.222Z,973.39
2022-08-05T01:23:23.672Z,973.39
2022-08-05T01:24:23.154Z,973.42
2022-08-05T01:25:23.084Z,973.43
2022-08-05T01:26:26.162Z,973.42
2022-08-05T01:27:22.944Z,973.40
2022-08-05T01:28:22.860Z,973.40
2022-08-05T01:29:23.012Z,973.41
2022-08-05T01:30:34.616Z,973.37
2022-08-05T01:31:22.639Z,973.36
2022-08-05T01:32:22.569Z,973.35
2022-08-05T01:33:25.455Z,973.37
2022-08-05T01:34:22.421Z,973.36
2022-08-05T01:35:51.215Z,973.35
2022-08-05T01:36:28.106Z,973.35
2022-08-05T01:37:24.839Z,973.33
2022-08-05T01:38:27.424Z,973.34
2022-08-05T01:39:46.547Z,973.35
2022-08-05T01:40:21.978Z,973.33
2022-08-05T01:41:22.123Z,973.34
2022-08-05T01:42:21.835Z,973.37
2022-08-05T01:43:21.932Z,973.33
2022-08-05T01:44:21.686Z,973.33
2022-08-05T01:45:21.614Z,973.33
2022-08-05T01:46:42.238Z,973.33
2022-08-05T01:47:21.723Z,973.36
2022-08-05T01:48:21.395Z,973.35
2022-08-05T01:49:24.436Z,973.38
2022-08-05T01:50:28.555Z,973.36
2022-08-05T01:51:21.178Z,973.37
2022-08-05T01:52:21.101Z,973.41
2022-08-05T01:53:54.528Z,973.41
2022-08-05T01:54:25.580Z,973.42
2022-08-05T01:55:20.921Z,973.45
2022-08-05T01:58:09.772Z,973.42
2022-08-05T01:58:11.342Z,973.44
2022-08-05T01:58:40.428Z,973.43
2022-08-05T01:59:20.586Z,973.41
2022-08-05T02:00:20.513Z,973.39
2022-08-05T02:01:23.307Z,973.37
2022-08-05T02:02:20.463Z,973.38
2022-08-05T02:03:28.961Z,973.39
2022-08-05T02:04:20.220Z,973.38
2022-08-05T02:05:20.145Z,973.39
2022-08-05T02:06:37.355Z,973.38
2022-08-05T02:07:21.856Z,973.35
2022-08-05T02:08:29.650Z,973.39
2022-08-05T02:09:20.623Z,973.36
2022-08-05T02:10:19.777Z,973.34
2022-08-05T02:11:23.606Z,973.35
2022-08-05T02:12:19.624Z,973.32
2022-08-05T02:13:19.554Z,973.36
2022-08-05T02:14:19.484Z,973.35
2022-08-05T02:15:19.639Z,973.35
2022-08-05T02:16:19.335Z,973.37
2022-08-05T02:18:28.519Z,973.36
2022-08-05T02:18:31.407Z,973.41
2022-08-05T02:19:19.113Z,973.40
2022-08-05T02:20:20.519Z,973.41
2022-08-05T02:21:18.968Z,973.40
2022-08-05T02:22:25.544Z,973.40
2022-08-05T02:23:18.819Z,973.38
2022-08-05T02:24:18.742Z,973.42
2022-08-05T02:25:18.680Z,973.43
2022-08-05T02:26:18.600Z,973.42
2022-08-05T02:27:18.521Z,973.44
2022-08-05T02:28:28.435Z,973.41
2022-08-05T02:29:21.551Z,973.43
2022-08-05T02:30:18.301Z,973.43
2022-08-05T02:31:21.272Z,973.44
2022-08-05T02:32:19.927Z,973.46
2022-08-05T02:33:24.567Z,973.44
2022-08-05T02:34:18.002Z,973.43
2022-08-05T02:35:22.093Z,973.45
2022-08-05T02:36:17.857Z,973.42
2022-08-05T02:37:17.784Z,973.45
2022-08-05T02:38:19.314Z,973.44
2022-08-05T02:39:17.657Z,973.41
2022-08-05T02:40:17.560Z,973.43
2022-08-05T02:41:17.748Z,973.43
2022-08-05T02:42:25.769Z,973.43
2022-08-05T02:43:17.340Z,973.42
2022-08-05T02:44:17.267Z,973.43
2022-08-05T02:45:17.193Z,973.44
2022-08-05T02:46:17.117Z,973.43
2022-08-05T02:47:17.044Z,973.43
2022-08-05T02:48:16.968Z,973.43
2022-08-05T02:49:16.894Z,973.41
2022-08-05T02:50:18.193Z,973.42
2022-08-05T02:51:16.747Z,973.40
2022-08-05T02:52:29.712Z,973.40
2022-08-05T02:53:19.150Z,973.42
2022-08-05T02:54:35.603Z,973.39
2022-08-05T02:55:17.561Z,973.39
2022-08-05T02:56:18.852Z,973.36
2022-08-05T02:58:16.227Z,973.39
2022-08-05T02:58:19.855Z,973.35
2022-08-05T02:59:16.154Z,973.40
2022-08-05T03:00:16.082Z,973.39
2022-08-05T03:01:16.072Z,973.40
2022-08-05T03:02:15.931Z,973.37
2022-08-05T03:03:15.860Z,973.35
2022-08-05T03:04:15.883Z,973.33
2022-08-05T03:05:15.714Z,973.34
2022-08-05T03:06:53.763Z,973.39
2022-08-05T03:07:21.479Z,973.33
2022-08-05T03:08:16.569Z,973.35
2022-08-05T03:09:17.616Z,973.32
2022-08-05T03:10:15.342Z,973.30
2022-08-05T03:11:54.886Z,973.29
2022-08-05T03:12:15.193Z,973.23
2022-08-05T03:13:16.907Z,973.19
2022-08-05T03:14:15.048Z,973.18
2022-08-05T03:15:14.973Z,973.17
2022-08-05T03:16:15.634Z,973.16
2022-08-05T03:17:14.822Z,973.16
2022-08-05T03:18:14.746Z,973.18
2022-08-05T03:19:29.452Z,973.14
2022-08-05T03:20:14.601Z,973.13
2022-08-05T03:21:14.528Z,973.17
2022-08-05T03:22:16.773Z,973.15
2022-08-05T03:23:14.378Z,973.19
2022-08-05T03:24:14.302Z,973.18
2022-08-05T03:25:34.094Z,973.20
2022-08-05T03:26:30.955Z,973.25
2022-08-05T03:27:14.082Z,973.37
2022-08-05T03:28:14.233Z,973.68
2022-08-05T03:29:17.211Z,974.00
2022-08-05T03:30:13.862Z,973.96
2022-08-05T03:31:55.373Z,973.94
2022-08-05T03:32:14.277Z,973.87
2022-08-05T03:33:13.641Z,973.74
2022-08-05T03:34:13.574Z,973.69
2022-08-05T03:35:13.492Z,973.64
2022-08-05T03:36:13.416Z,973.72
2022-08-05T03:37:13.343Z,973.84
2022-08-05T03:38:14.329Z,973.96
2022-08-05T03:39:20.370Z,973.92
2022-08-05T03:40:13.186Z,973.88
2022-08-05T03:41:13.049Z,973.84
2022-08-05T03:42:12.974Z,973.80
2022-08-05T03:43:59.004Z,973.80
2022-08-05T03:44:12.829Z,973.87
2022-08-05T03:45:21.956Z,973.95
2022-08-05T03:46:12.677Z,973.97
2022-08-05T03:47:20.348Z,973.96
2022-08-05T03:48:12.530Z,973.93
2022-08-05T03:49:12.454Z,973.89
2022-08-05T03:50:12.381Z,973.87
2022-08-05T03:52:37.774Z,973.88
2022-08-05T03:52:38.671Z,973.86
2022-08-05T03:55:07.197Z,973.88
2022-08-05T03:55:53.047Z,973.92
2022-08-05T03:56:01.399Z,973.96
2022-08-05T03:56:18.082Z,973.96
2022-08-05T03:57:16.054Z,974.03
2022-08-05T03:58:11.791Z,973.98
2022-08-05T03:59:11.716Z,973.99
2022-08-05T04:00:11.655Z,973.93
2022-08-05T04:01:13.158Z,973.91
2022-08-05T04:02:17.305Z,973.91
2022-08-05T04:03:14.940Z,973.96
2022-08-05T04:04:11.347Z,973.99
2022-08-05T04:05:11.275Z,974.03
2022-08-05T04:06:11.204Z,973.98
2022-08-05T04:07:11.129Z,973.97
2022-08-05T04:08:29.674Z,973.93
2022-08-05T04:09:10.983Z,973.89
2022-08-05T04:10:10.904Z,973.90
2022-08-05T04:11:10.842Z,973.88
2022-08-05T04:12:24.709Z,973.86
2022-08-05T04:13:10.691Z,973.86
2022-08-05T04:14:10.613Z,973.91
2022-08-05T04:15:10.536Z,973.98
2022-08-05T04:16:10.466Z,974.04
2022-08-05T04:17:11.379Z,974.06
2022-08-05T04:18:11.911Z,974.11
2022-08-05T04:19:10.629Z,974.11
2022-08-05T04:20:10.175Z,974.11
2022-08-05T04:21:11.079Z,974.07
2022-08-05T04:22:12.176Z,974.02
2022-08-05T04:23:12.504Z,973.99
2022-08-05T04:24:18.869Z,973.98
2022-08-05T04:25:10.827Z,973.96
2022-08-05T04:26:09.731Z,973.90
2022-08-05T04:27:09.654Z,973.98
2022-08-05T04:28:12.801Z,973.97
2022-08-05T04:29:09.506Z,973.95
2022-08-05T04:30:09.430Z,973.98
2022-08-05T04:31:10.569Z,974.00
2022-08-05T04:32:09.288Z,974.04
2022-08-05T04:33:09.218Z,974.07
2022-08-05T04:34:31.450Z,974.06
2022-08-05T04:35:17.505Z,974.11
2022-08-05T04:36:16.247Z,974.10
2022-08-05T04:37:08.916Z,974.07
2022-08-05T04:38:08.846Z,974.07
2022-08-05T04:39:08.882Z,974.01
2022-08-05T04:40:08.699Z,974.01
2022-08-05T04:41:09.621Z,973.99
2022-08-05T04:42:09.159Z,973.95
2022-08-05T04:43:10.984Z,973.93
2022-08-05T04:44:09.385Z,973.94
2022-08-05T04:45:08.330Z,973.93
2022-08-05T04:46:08.260Z,973.96
2022-08-05T04:47:09.923Z,973.96
2022-08-05T04:48:08.110Z,973.96
2022-08-05T04:49:14.629Z,973.94
2022-08-05T04:50:11.446Z,973.97
2022-08-05T04:51:11.343Z,973.96
2022-08-05T04:52:07.875Z,973.94
2022-08-05T04:53:08.452Z,973.98
2022-08-05T04:54:07.668Z,973.97
2022-08-05T04:55:14.234Z,973.97
2022-08-05T04:56:14.466Z,973.92
2022-08-05T04:57:07.450Z,973.95
2022-08-05T04:58:07.378Z,973.97
2022-08-05T04:59:22.233Z,973.97
2022-08-05T05:00:07.227Z,973.97
2022-08-05T05:01:07.212Z,973.96
2022-08-05T05:02:41.578Z,973.98
2022-08-05T05:03:07.069Z,974.01
2022-08-05T05:04:06.931Z,974.05
2022-08-05T05:05:26.464Z,974.06
2022-08-05T05:06:40.375Z,974.10
2022-08-05T05:07:09.485Z,974.17
2022-08-05T05:08:06.642Z,974.12
2022-08-05T05:09:06.564Z,974.15
2022-08-05T05:10:06.697Z,974.20
2022-08-05T05:11:06.421Z,974.21
2022-08-05T05:12:06.413Z,974.23
2022-08-05T05:13:06.274Z,974.21
2022-08-05T05:14:06.200Z,974.24
2022-08-05T05:15:06.127Z,974.24
2022-08-05T05:16:07.122Z,974.26
2022-08-05T05:17:07.455Z,974.25
2022-08-05T05:18:05.907Z,974.27
2022-08-05T05:19:18.732Z,974.29
2022-08-05T05:20:05.761Z,974.34
2022-08-05T05:21:05.745Z,974.36
2022-08-05T05:22:24.338Z,974.38
2022-08-05T05:23:08.478Z,974.40
2022-08-05T05:24:09.055Z,974.44
2022-08-05T05:25:16.408Z,974.45
2022-08-05T05:26:05.323Z,974.47
2022-08-05T05:27:05.249Z,974.53
2022-08-05T05:28:05.178Z,974.51
2022-08-05T05:29:14.345Z,974.55
2022-08-05T05:30:05.377Z,974.59
2022-08-05T05:31:05.667Z,974.57
2022-08-05T05:32:04.923Z,974.56
2022-08-05T05:33:16.455Z,974.60
2022-08-05T05:34:04.743Z,974.59
2022-08-05T05:35:04.677Z,974.62
2022-08-05T05:36:05.018Z,974.63
2022-08-05T05:37:04.526Z,974.60
2022-08-05T05:38:05.655Z,974.64
2022-08-05T05:39:04.562Z,974.63
2022-08-05T05:40:04.307Z,974.64
2022-08-05T05:41:04.233Z,974.62
2022-08-05T05:42:04.159Z,974.63
2022-08-05T05:43:04.084Z,974.64
2022-08-05T05:44:04.017Z,974.62
2022-08-05T05:45:03.945Z,974.61
2022-08-05T05:46:03.873Z,974.70
2022-08-05T05:47:04.396Z,974.68
2022-08-05T05:48:05.349Z,974.70
2022-08-05T05:49:06.476Z,974.73
2022-08-05T05:50:04.213Z,974.71
2022-08-05T05:51:15.203Z,974.72
2022-08-05T05:52:05.907Z,974.73
2022-08-05T05:53:03.353Z,974.72
2022-08-05T05:54:03.285Z,974.62
2022-08-05T05:55:07.309Z,974.52
2022-08-05T05:56:03.405Z,974.51
2022-08-05T05:57:03.064Z,974.58
2022-08-05T05:58:02.993Z,974.68
2022-08-05T05:59:05.387Z,974.71
2022-08-05T06:00:02.848Z,974.65
2022-08-05T06:01:13.093Z,974.67
2022-08-05T06:02:02.704Z,974.68
2022-08-05T06:03:02.626Z,974.69
2022-08-05T06:04:03.685Z,974.68
2022-08-05T06:05:03.485Z,974.70
2022-08-05T06:06:02.413Z,974.72
2022-08-05T06:07:02.340Z,974.76
2022-08-05T06:08:03.765Z,974.84
2022-08-05T06:09:03.967Z,974.86
2022-08-05T06:10:04.735Z,974.86
2022-08-05T06:11:02.055Z,974.84
2022-08-05T06:12:02.934Z,974.84
2022-08-05T06:13:01.909Z,974.85
2022-08-05T06:14:02.141Z,974.88
2022-08-05T06:15:01.765Z,974.88
2022-08-05T06:16:30.384Z,974.93
2022-08-05T06:17:02.270Z,974.97
2022-08-05T06:18:01.548Z,975.05
2022-08-05T06:19:02.094Z,975.07
2022-08-05T06:20:01.401Z,975.16
2022-08-05T06:21:01.332Z,975.16
2022-08-05T06:22:01.262Z,975.20
2022-08-05T06:23:01.187Z,975.21
2022-08-05T06:24:01.600Z,975.27
2022-08-05T06:25:01.042Z,975.47
2022-08-05T06:26:20.642Z,975.70
2022-08-05T06:27:00.896Z,975.69
2022-08-05T06:28:10.624Z,975.55
2022-08-05T06:29:03.716Z,975.37
2022-08-05T06:30:04.004Z,975.49
2022-08-05T06:31:00.608Z,975.69
2022-08-05T06:32:00.547Z,975.81
2022-08-05T06:33:00.471Z,975.79
2022-08-05T06:34:07.036Z,975.66
2022-08-05T06:35:00.328Z,975.65
2022-08-05T06:36:07.936Z,975.74
2022-08-05T06:37:00.187Z,975.80
2022-08-05T06:38:03.066Z,975.76
2022-08-05T06:39:00.067Z,975.84
2022-08-05T06:39:59.970Z,975.97
2022-08-05T06:40:59.904Z,975.93
2022-08-05T06:41:59.828Z,975.91
2022-08-05T06:42:59.757Z,975.84
2022-08-05T06:44:00.773Z,975.84
2022-08-05T06:44:59.610Z,975.87
2022-08-05T06:46:06.582Z,975.91
2022-08-05T06:46:59.468Z,975.98
2022-08-05T06:48:36.868Z,976.03
2022-08-05T06:49:00.771Z,976.08
2022-08-05T06:50:01.917Z,976.24
2022-08-05T06:51:00.160Z,976.23
2022-08-05T06:51:59.114Z,976.17
2022-08-05T06:53:11.290Z,976.12
2022-08-05T06:53:58.977Z,976.07
2022-08-05T06:54:58.939Z,976.11
2022-08-05T06:55:58.841Z,976.15
2022-08-05T06:57:56.597Z,976.19
2022-08-05T06:58:11.616Z,976.23
2022-08-05T06:58:58.609Z,976.31
2022-08-05T06:59:58.548Z,976.38
2022-08-05T07:00:58.552Z,976.43
2022-08-05T07:01:58.402Z,976.48
2022-08-05T07:02:58.327Z,976.54
2022-08-05T07:03:58.268Z,976.48
2022-08-05T07:04:58.187Z,976.46
2022-08-05T07:05:58.119Z,976.51
2022-08-05T07:06:58.059Z,976.49
2022-08-05T07:07:57.977Z,976.58
2022-08-05T07:08:59.028Z,976.52
2022-08-05T07:09:58.439Z,976.51
2022-08-05T07:10:57.757Z,976.49
2022-08-05T07:12:00.390Z,976.59
2022-08-05T07:12:57.618Z,976.50
2022-08-05T07:13:59.923Z,976.56
2022-08-05T07:14:57.478Z,976.54
2022-08-05T07:16:00.823Z,976.56
2022-08-05T07:18:00.088Z,976.56
2022-08-05T07:18:09.310Z,976.60
2022-08-05T07:18:57.199Z,976.61
2022-08-05T07:20:31.435Z,976.60
2022-08-05T07:20:57.047Z,976.69
2022-08-05T07:21:59.771Z,976.67
2022-08-05T07:22:56.907Z,976.68
2022-08-05T07:23:56.837Z,976.62
2022-08-05T07:24:56.771Z,976.57
2022-08-05T07:25:57.041Z,976.59
2022-08-05T07:26:56.621Z,976.59
2022-08-05T07:28:02.298Z,976.60
2022-08-05T07:28:56.483Z,976.64
2022-08-05T07:30:22.182Z,976.57
2022-08-05T07:30:56.340Z,976.58
2022-08-05T07:31:56.266Z,976.62
2022-08-05T07:32:56.199Z,976.59
2022-08-05T07:33:56.139Z,976.61
2022-08-05T07:34:57.773Z,976.63
2022-08-05T07:36:03.390Z,976.65
2022-08-05T07:36:55.918Z,976.67
2022-08-05T07:37:55.844Z,976.68
2022-08-05T07:38:55.774Z,976.68
2022-08-05T07:40:26.933Z,976.60
2022-08-05T07:41:00.314Z,976.72
2022-08-05T07:42:07.699Z,976.62
2022-08-05T07:42:55.492Z,976.63
2022-08-05T07:43:56.597Z,976.63
2022-08-05T07:44:55.350Z,976.64
2022-08-05T07:45:57.067Z,976.62
2022-08-05T07:46:55.214Z,976.63
2022-08-05T07:47:55.791Z,976.62
2022-08-05T07:49:02.030Z,976.57
2022-08-05T07:49:55.000Z,976.57
2022-08-05T07:50:54.931Z,976.57
2022-08-05T07:51:55.246Z,976.56
2022-08-05T07:52:54.795Z,976.58
2022-08-05T07:53:54.723Z,976.61
2022-08-05T07:54:54.652Z,976.61
2022-08-05T07:56:06.434Z,976.59
2022-08-05T07:57:01.451Z,976.62
2022-08-05T07:58:02.070Z,976.60
2022-08-05T07:58:58.605Z,976.58
2022-08-05T07:59:54.308Z,976.60
2022-08-05T08:00:54.268Z,976.60
2022-08-05T08:01:57.468Z,976.67
2022-08-05T08:03:13.641Z,976.68
2022-08-05T08:03:54.026Z,976.68
2022-08-05T08:04:53.958Z,976.70
2022-08-05T08:05:53.897Z,976.68
2022-08-05T08:06:53.831Z,976.67
2022-08-05T08:07:59.554Z,976.63
2022-08-05T08:08:53.679Z,976.67
2022-08-05T08:09:55.056Z,976.66
2022-08-05T08:10:53.541Z,976.68
2022-08-05T08:11:59.037Z,976.69
2022-08-05T08:12:53.414Z,976.74
2022-08-05T08:14:00.697Z,976.78
2022-08-05T08:14:53.271Z,976.86
2022-08-05T08:16:35.675Z,976.86
2022-08-05T08:16:53.619Z,976.93
2022-08-05T08:17:53.270Z,976.96
2022-08-05T08:18:52.990Z,976.95
2022-08-05T08:20:23.478Z,976.92
2022-08-05T08:21:01.996Z,976.87
2022-08-05T08:21:52.789Z,976.93
2022-08-05T08:22:52.718Z,976.92
2022-08-05T08:24:00.967Z,976.96
2022-08-05T08:24:52.584Z,976.97
2022-08-05T08:26:02.170Z,976.99
2022-08-05T08:26:52.480Z,976.94
2022-08-05T08:27:52.377Z,976.97
2022-08-05T08:29:02.090Z,976.99
2022-08-05T08:30:03.842Z,976.95
2022-08-05T08:30:52.170Z,977.03
2022-08-05T08:31:52.100Z,977.01
2022-08-05T08:32:52.032Z,977.00
2022-08-05T08:33:53.132Z,977.03
2022-08-05T08:34:51.913Z,977.01
2022-08-05T08:35:53.103Z,977.03
2022-08-05T08:36:55.817Z,976.99
2022-08-05T08:37:53.501Z,976.97
2022-08-05T08:38:53.398Z,977.03
2022-08-05T08:39:51.632Z,976.93
2022-08-05T08:40:51.871Z,976.94
2022-08-05T08:41:59.823Z,976.91
2022-08-05T08:42:52.558Z,976.87
2022-08-05T08:45:22.227Z,976.76
2022-08-05T08:45:23.124Z,976.85
2022-08-05T08:45:51.150Z,976.79
2022-08-05T08:46:51.077Z,976.84
2022-08-05T08:48:12.845Z,976.78
2022-08-05T08:49:07.473Z,976.83
2022-08-05T08:50:13.209Z,976.84
2022-08-05T08:51:22.157Z,976.90
2022-08-05T08:52:03.623Z,976.91
2022-08-05T08:52:51.664Z,976.93
2022-08-05T08:53:50.609Z,976.92
2022-08-05T08:54:50.534Z,976.99
2022-08-05T08:56:02.813Z,976.93
2022-08-05T08:56:50.404Z,976.97
2022-08-05T08:57:57.983Z,977.01
2022-08-05T08:58:50.564Z,977.02
2022-08-05T08:59:50.203Z,977.01
2022-08-05T09:00:50.182Z,976.99
2022-08-05T09:01:57.232Z,976.99
2022-08-05T09:02:49.999Z,976.97
2022-08-05T09:03:54.547Z,976.94
2022-08-05T09:05:16.482Z,976.93
2022-08-05T09:06:08.500Z,976.98
2022-08-05T09:06:49.889Z,976.95
2022-08-05T09:07:57.578Z,976.98
2022-08-05T09:08:49.594Z,976.94
2022-08-05T09:09:50.203Z,976.91
2022-08-05T09:10:49.462Z,976.94
2022-08-05T09:11:51.504Z,976.99
2022-08-05T09:12:51.004Z,976.93
2022-08-05T09:14:01.081Z,976.99
2022-08-05T09:14:57.859Z,976.99
2022-08-05T09:15:49.122Z,977.00
2022-08-05T09:16:49.151Z,976.99
2022-08-05T09:17:49.565Z,976.96
2022-08-05T09:18:48.919Z,976.99
2022-08-05T09:20:01.982Z,976.95
2022-08-05T09:20:48.803Z,976.98
2022-08-05T09:22:22.813Z,976.97
2022-08-05T09:22:51.867Z,976.99
2022-08-05T09:23:48.595Z,976.99
2022-08-05T09:24:48.521Z,976.96
2022-08-05T09:26:03.156Z,976.95
2022-08-05T09:26:48.392Z,976.93
2022-08-05T09:28:04.081Z,976.93
2022-08-05T09:28:48.251Z,976.98
2022-08-05T09:29:48.264Z,977.01
2022-08-05T09:30:48.124Z,977.02
2022-08-05T09:32:41.098Z,977.01
2022-08-05T09:32:47.999Z,977.00
2022-08-05T09:33:47.937Z,977.02
2022-08-05T09:34:47.851Z,977.04
2022-08-05T09:35:47.792Z,977.04
2022-08-05T09:36:55.897Z,977.01
2022-08-05T09:38:16.564Z,976.97
2022-08-05T09:38:47.596Z,977.04
2022-08-05T09:39:52.282Z,976.99
2022-08-05T09:40:52.545Z,977.00
2022-08-05T09:41:47.395Z,976.98
2022-08-05T09:42:48.398Z,976.96
2022-08-05T09:43:49.373Z,976.97
2022-08-05T09:44:50.407Z,976.94
2022-08-05T09:46:07.706Z,976.92
2022-08-05T09:46:51.945Z,976.95
2022-08-05T09:47:55.857Z,976.93
2022-08-05T09:48:55.441Z,976.96
2022-08-05T09:50:01.315Z,976.96
2022-08-05T09:50:46.794Z,976.97
2022-08-05T09:51:50.000Z,976.98
2022-08-05T09:52:46.665Z,976.92
2022-08-05T09:53:54.293Z,976.89
2022-08-05T09:54:46.537Z,976.86
2022-08-05T09:55:58.100Z,976.86
2022-08-05T09:56:51.744Z,976.89
2022-08-05T09:57:46.337Z,976.86
2022-08-05T09:58:47.449Z,976.87
2022-08-05T09:59:46.200Z,976.87
2022-08-05T10:00:46.133Z,976.81
2022-08-05T10:01:46.372Z,976.80
2022-08-05T10:02:46.015Z,976.77
2022-08-05T10:03:58.557Z,976.82
2022-08-05T10:04:45.869Z,976.80
2022-08-05T10:05:45.802Z,976.81
2022-08-05T10:06:54.827Z,976.77
2022-08-05T10:08:10.927Z,976.80
2022-08-05T10:08:50.322Z,976.73
2022-08-05T10:09:45.673Z,976.74
2022-08-05T10:10:45.474Z,976.66
2022-08-05T10:11:45.472Z,976.66
2022-08-05T10:12:49.990Z,976.68
2022-08-05T10:13:47.643Z,976.65
2022-08-05T10:14:45.213Z,976.67
2022-08-05T10:15:45.208Z,976.63
2022-08-05T10:16:52.817Z,976.64
2022-08-05T10:17:54.571Z,976.65
2022-08-05T10:18:44.948Z,976.64
2022-08-05T10:20:04.470Z,976.62
2022-08-05T10:20:47.840Z,976.74
2022-08-05T10:21:44.753Z,976.64
2022-08-05T10:22:50.690Z,976.68
2022-08-05T10:23:59.512Z,976.68
2022-08-05T10:24:46.021Z,976.68
2022-08-05T10:25:44.504Z,976.71
2022-08-05T10:26:48.905Z,976.65
2022-08-05T10:28:09.274Z,976.66
2022-08-05T10:28:45.091Z,976.64
2022-08-05T10:30:06.608Z,976.63
2022-08-05T10:32:51.032Z,976.61
2022-08-05T10:32:53.303Z,976.62
2022-08-05T10:32:59.446Z,976.57
2022-08-05T10:33:43.992Z,976.52
2022-08-05T10:34:43.907Z,976.53
2022-08-05T10:35:44.716Z,976.54
2022-08-05T10:36:43.775Z,976.56
2022-08-05T10:37:44.959Z,976.56
2022-08-05T10:38:45.064Z,976.57
2022-08-05T10:40:03.699Z,976.59
2022-08-05T10:40:44.891Z,976.61
2022-08-05T10:41:46.995Z,976.59
2022-08-05T10:42:43.679Z,976.53
2022-08-05T10:43:43.325Z,976.54
2022-08-05T10:44:43.259Z,976.51
2022-08-05T10:45:43.196Z,976.54
2022-08-05T10:46:43.135Z,976.50
2022-08-05T10:47:56.130Z,976.44
2022-08-05T10:48:58.137Z,976.50
2022-08-05T10:49:49.092Z,976.52
2022-08-05T10:50:42.878Z,976.50
2022-08-05T10:51:53.107Z,976.51
2022-08-05T10:52:49.484Z,976.42
2022-08-05T10:53:45.360Z,976.42
2022-08-05T10:54:46.858Z,976.42
2022-08-05T10:56:03.513Z,976.43
2022-08-05T10:56:42.498Z,976.46
2022-08-05T10:57:44.698Z,976.43
2022-08-05T10:58:49.561Z,976.41
2022-08-05T11:00:02.483Z,976.39
2022-08-05T11:00:44.048Z,976.37
2022-08-05T11:01:55.495Z,976.36
2022-08-05T11:02:43.708Z,976.31
2022-08-05T11:03:42.084Z,976.27
2022-08-05T11:04:41.989Z,976.35
2022-08-05T11:05:41.960Z,976.37
2022-08-05T11:06:41.861Z,976.41
2022-08-05T11:08:02.752Z,976.37
2022-08-05T11:08:41.731Z,976.38
2022-08-05T11:09:46.460Z,976.34
2022-08-05T11:10:50.370Z,976.35
2022-08-05T11:11:52.050Z,976.33
2022-08-05T11:12:41.891Z,976.29
2022-08-05T11:13:54.632Z,976.27
2022-08-05T11:15:01.370Z,976.30
2022-08-05T11:16:00.987Z,976.28
2022-08-05T11:16:56.171Z,976.25
2022-08-05T11:18:07.685Z,976.24
2022-08-05T11:18:46.955Z,976.22
2022-08-05T11:20:09.936Z,976.21
2022-08-05T11:20:41.737Z,976.27
2022-08-05T11:21:49.437Z,976.28
2022-08-05T11:22:42.118Z,976.28
2022-08-05T11:24:02.775Z,976.33
2022-08-05T11:24:40.725Z,976.37
2022-08-05T11:26:05.014Z,976.36
2022-08-05T11:26:40.596Z,976.40
2022-08-05T11:27:51.645Z,976.37
2022-08-05T11:28:40.471Z,976.40
2022-08-05T11:29:40.406Z,976.32
2022-08-05T11:30:40.352Z,976.32
2022-08-05T11:31:57.234Z,976.35
2022-08-05T11:32:40.222Z,976.36
2022-08-05T11:33:46.366Z,976.34
2022-08-05T11:34:40.099Z,976.35
2022-08-05T11:35:40.034Z,976.35
2022-08-05T11:36:40.498Z,976.28
2022-08-05T11:38:26.423Z,976.28
2022-08-05T11:38:50.953Z,976.32
2022-08-05T11:39:39.807Z,976.33
2022-08-05T11:40:39.718Z,976.34
2022-08-05T11:42:01.020Z,976.31
2022-08-05T11:42:40.458Z,976.36
2022-08-05T11:44:01.116Z,976.39
2022-08-05T11:44:52.780Z,976.37
2022-08-05T11:46:30.631Z,976.37
2022-08-05T11:46:58.556Z,976.40
2022-08-05T11:47:49.437Z,976.44
2022-08-05T11:48:39.224Z,976.40
2022-08-05T11:49:39.167Z,976.43
2022-08-05T11:50:39.094Z,976.43
2022-08-05T11:51:44.169Z,976.44
2022-08-05T11:52:38.969Z,976.44
2022-08-05T11:53:40.900Z,976.42
2022-08-05T11:54:40.567Z,976.42
2022-08-05T11:55:39.065Z,976.40
2022-08-05T11:56:40.927Z,976.35
2022-08-05T11:58:08.537Z,976.38
2022-08-05T11:58:38.596Z,976.37
2022-08-05T11:59:49.825Z,976.37
2022-08-05T12:00:39.021Z,976.40
2022-08-05T12:01:38.410Z,976.37
2022-08-05T12:02:40.097Z,976.33
2022-08-05T12:03:38.311Z,976.42
2022-08-05T12:04:38.222Z,976.37
2022-08-05T12:05:43.436Z,976.36
2022-08-05T12:06:38.095Z,976.34
2022-08-05T12:08:03.274Z,976.31
2022-08-05T12:08:39.317Z,976.33
2022-08-05T12:09:53.026Z,976.35
2022-08-05T12:10:43.161Z,976.32
2022-08-05T12:11:40.088Z,976.35
2022-08-05T12:12:37.760Z,976.34
2022-08-05T12:13:49.229Z,976.38
2022-08-05T12:14:37.599Z,976.40
2022-08-05T12:15:38.291Z,976.34
2022-08-05T12:16:38.433Z,976.41
2022-08-05T12:18:02.560Z,976.37
2022-08-05T12:18:38.823Z,976.36
2022-08-05T12:20:27.120Z,976.36
2022-08-05T12:20:37.224Z,976.32
2022-08-05T12:21:39.182Z,976.30
2022-08-05T12:22:37.099Z,976.27
2022-08-05T12:23:37.034Z,976.23
2022-08-05T12:24:36.975Z,976.26
2022-08-05T12:25:36.911Z,976.27
2022-08-05T12:26:36.851Z,976.26
2022-08-05T12:27:37.210Z,976.25